Time;durP1;ratioP1;P1;durP2;ratioP2;P2;SDS_P1;SDS_P2;PMS_P1;PMS_P2;Temp;Humidity;BMP_temperature;BMP_pressure;BME280_temperature;BME280_humidity;BME280_pressure;Samples;Min_cycle;Max_cycle;Signal;HPM_P1;HPM_P2
2021/01/05 00:00:12;;;;;;;0.38;0.20;;;21.80;29.80;;;;;;4976888;28;20035;-44
2021/01/05 00:02:38;;;;;;;0.38;0.28;;;21.80;29.80;;;;;;4980512;28;20349;-44
2021/01/05 00:05:06;;;;;;;0.70;0.30;;;21.70;29.80;;;;;;4978502;28;20050;-44
2021/01/05 00:07:31;;;;;;;1.48;0.60;;;21.70;29.80;;;;;;4984898;28;20026;-45
2021/01/05 00:09:57;;;;;;;0.50;0.40;;;21.70;29.80;;;;;;4995145;28;20169;-47
2021/01/05 00:12:23;;;;;;;0.40;0.40;;;21.80;29.90;;;;;;4991120;28;20456;-45
2021/01/05 00:14:49;;;;;;;0.20;0.20;;;21.70;29.80;;;;;;4995043;28;20140;-45
2021/01/05 00:17:18;;;;;;;0.30;0.20;;;21.70;29.80;;;;;;4988250;28;20105;-45
2021/01/05 00:19:45;;;;;;;0.50;0.30;;;21.70;29.80;;;;;;4978017;28;20030;-44
2021/01/05 00:22:11;;;;;;;0.30;0.30;;;21.70;29.80;;;;;;4977828;28;20023;-45
2021/01/05 00:24:37;;;;;;;0.65;0.38;;;21.70;29.80;;;;;;4995111;28;20442;-48
2021/01/05 00:27:03;;;;;;;0.38;0.30;;;21.70;29.80;;;;;;4990961;28;20101;-48
2021/01/05 00:29:29;;;;;;;0.20;0.20;;;21.70;29.90;;;;;;4991627;28;20335;-46
2021/01/05 00:32:14;;;;;;;0.38;0.30;;;21.70;29.90;;;;;;4987826;28;20038;-45
2021/01/05 00:34:41;;;;;;;0.30;0.30;;;21.70;29.90;;;;;;4995090;28;20118;-52
2021/01/05 00:37:07;;;;;;;0.50;0.38;;;21.60;29.80;;;;;;4988887;28;20096;-46
2021/01/05 00:39:33;;;;;;;0.40;0.38;;;21.60;29.80;;;;;;4989388;28;20416;-46
2021/01/05 00:41:59;;;;;;;0.22;0.22;;;21.60;29.80;;;;;;4992974;28;20038;-48
2021/01/05 00:44:24;;;;;;;1.00;0.50;;;21.60;29.80;;;;;;4975881;28;20133;-45
2021/01/05 00:46:54;;;;;;;0.30;0.30;;;21.50;29.80;;;;;;4976784;28;20023;-49
2021/01/05 00:49:20;;;;;;;0.52;0.35;;;21.50;29.80;;;;;;4980614;28;21016;-45
2021/01/05 00:51:46;;;;;;;0.70;0.43;;;21.60;29.80;;;;;;4990498;28;20031;-45
2021/01/05 00:54:13;;;;;;;1.52;0.50;;;21.50;29.80;;;;;;4966968;28;20042;-47
2021/01/05 00:56:39;;;;;;;0.80;0.40;;;21.50;29.80;;;;;;4974427;28;20134;-45
2021/01/05 00:59:06;;;;;;;0.93;0.40;;;21.50;29.80;;;;;;4975531;28;20042;-43
2021/01/05 01:01:32;;;;;;;0.60;0.40;;;21.50;29.80;;;;;;4991587;28;20026;-44
2021/01/05 01:03:58;;;;;;;1.20;0.40;;;21.50;29.80;;;;;;4975181;28;20446;-43
2021/01/05 01:06:24;;;;;;;1.05;0.60;;;21.50;29.80;;;;;;4979298;28;20045;-46
2021/01/05 01:08:51;;;;;;;0.93;0.50;;;21.50;29.80;;;;;;4970714;28;20047;-43
2021/01/05 01:11:18;;;;;;;0.50;0.38;;;21.50;29.80;;;;;;4986718;28;20027;-43
2021/01/05 01:13:46;;;;;;;0.85;0.47;;;21.50;29.90;;;;;;4975605;28;20049;-43
2021/01/05 01:16:13;;;;;;;0.90;0.55;;;21.50;29.90;;;;;;4964427;28;20034;-44
2021/01/05 01:18:40;;;;;;;0.20;0.20;;;21.40;30.00;;;;;;4974155;28;20041;-48
2021/01/05 01:21:06;;;;;;;0.40;0.30;;;21.40;30.00;;;;;;4973411;28;20031;-45
2021/01/05 01:23:32;;;;;;;0.55;0.38;;;21.40;30.00;;;;;;4970651;28;20045;-48
2021/01/05 01:26:00;;;;;;;0.85;0.40;;;21.40;30.00;;;;;;4981089;28;20042;-46
2021/01/05 01:28:27;;;;;;;0.43;0.30;;;21.40;30.00;;;;;;4990342;28;20461;-45
2021/01/05 01:30:54;;;;;;;0.77;0.40;;;21.40;30.00;;;;;;4967874;28;20031;-47
2021/01/05 01:33:24;;;;;;;2.28;0.40;;;21.40;30.00;;;;;;4975598;28;20389;-44
2021/01/05 01:35:53;;;;;;;0.45;0.45;;;21.40;30.00;;;;;;4989266;28;20051;-47
2021/01/05 01:38:18;;;;;;;0.20;0.20;;;21.40;30.00;;;;;;4974838;28;20334;-43
2021/01/05 01:40:50;;;;;;;1.23;0.40;;;21.40;30.00;;;;;;4964849;28;20034;-45
2021/01/05 01:43:21;;;;;;;0.45;0.43;;;21.40;30.00;;;;;;4975404;28;20540;-43
2021/01/05 01:45:48;;;;;;;0.50;0.40;;;21.40;30.00;;;;;;4970946;28;20081;-44
2021/01/05 01:48:21;;;;;;;0.40;0.30;;;21.30;29.90;;;;;;4959538;28;20039;-44
2021/01/05 01:50:52;;;;;;;0.30;0.30;;;21.40;30.00;;;;;;4961963;28;20415;-46
2021/01/05 01:53:21;;;;;;;0.38;0.38;;;21.30;29.90;;;;;;4989842;28;20081;-46
2021/01/05 01:56:00;;;;;;;1.15;0.52;;;21.30;29.90;;;;;;4974200;28;20035;-43
2021/01/05 01:58:57;;;;;;;0.50;0.32;;;21.30;30.00;;;;;;4983513;28;20038;-43
2021/01/05 02:01:26;;;;;;;;;;;21.30;30.00;;;;;;4964206;28;20027;-43
2021/01/05 02:03:54;;;;;;;0.45;0.30;;;21.30;30.00;;;;;;4980060;28;19942;-44
2021/01/05 02:06:52;;;;;;;0.40;0.40;;;21.30;30.00;;;;;;4958864;28;20062;-43
2021/01/05 02:09:21;;;;;;;0.80;0.50;;;21.30;30.00;;;;;;4957458;28;20379;-44
2021/01/05 02:12:15;;;;;;;0.50;0.40;;;21.30;30.00;;;;;;4971955;28;20082;-45
2021/01/05 02:15:22;;;;;;;0.32;0.30;;;21.20;30.00;;;;;;4958708;28;20035;-44
2021/01/05 02:18:20;;;;;;;1.27;0.57;;;21.20;30.00;;;;;;4960227;28;20122;-45
2021/01/05 02:21:22;;;;;;;0.40;0.30;;;21.20;30.00;;;;;;4959954;28;20461;-48
2021/01/05 02:24:01;;;;;;;0.38;0.38;;;21.20;30.00;;;;;;4972769;28;20034;-46
2021/01/05 02:26:43;;;;;;;0.43;0.38;;;21.20;30.00;;;;;;4991104;28;20525;-45
2021/01/05 02:29:18;;;;;;;0.50;0.47;;;21.20;30.00;;;;;;4966082;28;20058;-44
2021/01/05 02:32:10;;;;;;;0.30;0.30;;;21.20;30.00;;;;;;4958391;28;20388;-43
2021/01/05 02:35:19;;;;;;;0.30;0.30;;;21.20;30.00;;;;;;4961030;28;20170;-44
2021/01/05 02:38:29;;;;;;;0.60;0.60;;;21.20;30.00;;;;;;4974727;28;20113;-47
2021/01/05 02:41:19;;;;;;;0.52;0.50;;;21.20;30.20;;;;;;4964677;28;20125;-44
2021/01/05 02:44:17;;;;;;;0.73;0.60;;;21.10;30.20;;;;;;4976172;28;20046;-47
2021/01/05 02:47:28;;;;;;;0.55;0.50;;;21.10;30.20;;;;;;4974219;28;20046;-44
2021/01/05 02:50:41;;;;;;;0.88;0.35;;;21.10;30.20;;;;;;4958710;28;20354;-44
2021/01/05 02:53:51;;;;;;;0.40;0.40;;;21.10;30.20;;;;;;4943456;28;20046;-43
2021/01/05 02:57:18;;;;;;;0.47;0.40;;;21.10;30.20;;;;;;4949743;29;20498;-43
2021/01/05 03:00:24;;;;;;;0.75;0.40;;;21.10;30.20;;;;;;4944527;28;20066;-43
2021/01/05 03:03:33;;;;;;;1.60;0.40;;;21.10;30.20;;;;;;4961387;28;20054;-44
2021/01/05 03:06:33;;;;;;;1.02;0.50;;;21.00;30.10;;;;;;4969019;28;20145;-43
2021/01/05 03:09:42;;;;;;;0.50;0.50;;;21.00;30.10;;;;;;4965752;28;20070;-45
2021/01/05 03:12:54;;;;;;;0.47;0.43;;;21.00;30.10;;;;;;4984955;28;20046;-43
2021/01/05 03:16:01;;;;;;;0.80;0.50;;;21.10;30.20;;;;;;4976640;28;20131;-43
2021/01/05 03:18:58;;;;;;;0.75;0.60;;;21.00;30.10;;;;;;4984532;28;20130;-50
2021/01/05 03:21:53;;;;;;;0.63;0.47;;;21.00;30.30;;;;;;4976717;28;20050;-51
2021/01/05 03:24:40;;;;;;;0.82;0.60;;;21.00;30.30;;;;;;4980252;28;20061;-44
2021/01/05 03:27:25;;;;;;;1.13;0.52;;;21.00;30.30;;;;;;4993026;28;20416;-44
2021/01/05 03:30:19;;;;;;;0.55;0.55;;;21.00;30.30;;;;;;4992635;28;20108;-44
2021/01/05 03:33:04;;;;;;;0.73;0.60;;;21.00;30.30;;;;;;4988958;28;20526;-44
2021/01/05 03:35:49;;;;;;;0.90;0.80;;;21.00;30.30;;;;;;4976827;28;20053;-49
2021/01/05 03:38:33;;;;;;;0.90;0.73;;;21.00;30.20;;;;;;4979609;28;20062;-44
2021/01/05 03:41:32;;;;;;;0.75;0.70;;;21.00;30.20;;;;;;4962348;28;20038;-46
2021/01/05 03:44:17;;;;;;;1.00;0.70;;;21.00;30.30;;;;;;4992490;28;20104;-45
2021/01/05 03:47:02;;;;;;;0.77;0.43;;;20.90;30.20;;;;;;4976731;28;20480;-43
2021/01/05 03:49:46;;;;;;;0.57;0.57;;;20.90;30.20;;;;;;4984744;28;20049;-45
2021/01/05 03:52:30;;;;;;;0.90;0.77;;;20.90;30.20;;;;;;4975883;28;20049;-44
2021/01/05 03:55:16;;;;;;;1.15;0.80;;;21.00;30.30;;;;;;4985325;28;20109;-45
2021/01/05 03:58:00;;;;;;;0.57;0.50;;;20.90;30.20;;;;;;4986392;28;20057;-44
2021/01/05 04:00:44;;;;;;;1.05;0.70;;;20.90;30.20;;;;;;4978124;28;20053;-43
2021/01/05 04:03:10;;;;;;;0.80;0.70;;;20.90;30.20;;;;;;4982411;28;20022;-46
2021/01/05 04:05:36;;;;;;;0.80;0.60;;;20.90;30.20;;;;;;4991047;28;20053;-44
2021/01/05 04:08:02;;;;;;;0.73;0.60;;;20.90;30.30;;;;;;4992641;28;20056;-45
2021/01/05 04:10:27;;;;;;;0.77;0.70;;;20.90;30.20;;;;;;4982434;28;20193;-45
2021/01/05 04:12:53;;;;;;;0.90;0.68;;;20.90;30.20;;;;;;4979644;28;20046;-44
2021/01/05 04:15:25;;;;;;;0.82;0.60;;;20.90;30.20;;;;;;4983207;28;20125;-46
2021/01/05 04:17:51;;;;;;;0.40;0.40;;;20.90;30.20;;;;;;4982445;28;20030;-43
2021/01/05 04:20:18;;;;;;;0.73;0.60;;;20.90;30.20;;;;;;4977811;28;20492;-45
2021/01/05 04:22:44;;;;;;;0.60;0.60;;;20.90;30.30;;;;;;4977223;28;20055;-46
2021/01/05 04:25:12;;;;;;;0.90;0.60;;;20.90;30.30;;;;;;4982738;28;20449;-44
2021/01/05 04:27:37;;;;;;;1.17;0.80;;;20.90;30.40;;;;;;4989342;28;20031;-45
2021/01/05 04:30:05;;;;;;;0.63;0.57;;;20.90;30.40;;;;;;4975856;28;20054;-48
2021/01/05 04:32:31;;;;;;;1.20;0.70;;;20.90;30.40;;;;;;4959496;28;20035;-45
2021/01/05 04:34:56;;;;;;;1.10;0.73;;;20.90;30.40;;;;;;4995385;28;20464;-44
2021/01/05 04:37:22;;;;;;;1.67;0.70;;;20.80;30.30;;;;;;4993822;28;20114;-45
2021/01/05 04:39:48;;;;;;;1.45;0.90;;;20.90;30.40;;;;;;4991238;28;20034;-48
2021/01/05 04:42:31;;;;;;;1.02;0.75;;;20.90;30.50;;;;;;4977185;28;20031;-43
2021/01/05 04:45:21;;;;;;;0.65;0.60;;;20.80;30.40;;;;;;4979842;28;20042;-44
2021/01/05 04:48:09;;;;;;;1.70;0.77;;;20.80;30.40;;;;;;4985900;28;20097;-44
2021/01/05 04:50:50;;;;;;;0.80;0.70;;;20.80;30.40;;;;;;4986547;28;20427;-46
2021/01/05 04:53:22;;;;;;;1.05;0.68;;;20.80;30.40;;;;;;4977902;28;20050;-43
2021/01/05 04:55:55;;;;;;;0.82;0.68;;;20.80;30.40;;;;;;4981084;28;20109;-44
2021/01/05 04:58:50;;;;;;;1.27;0.80;;;20.80;30.40;;;;;;4990635;28;20030;-45
2021/01/05 05:01:25;;;;;;;1.27;0.75;;;20.80;30.40;;;;;;4994839;28;20034;-44
2021/01/05 05:04:14;;;;;;;0.73;0.70;;;20.80;30.40;;;;;;4981290;28;20123;-43
2021/01/05 05:06:51;;;;;;;1.05;0.80;;;20.80;30.40;;;;;;4990873;28;20042;-47
2021/01/05 05:09:38;;;;;;;0.73;0.60;;;20.80;30.40;;;;;;4965752;28;20458;-44
2021/01/05 05:12:12;;;;;;;0.70;0.65;;;20.80;30.40;;;;;;4992648;28;20045;-46
2021/01/05 05:15:03;;;;;;;0.57;0.52;;;20.80;30.40;;;;;;4978206;28;20411;-44
2021/01/05 05:17:39;;;;;;;1.65;0.90;;;20.80;30.50;;;;;;4982796;28;20142;-45
2021/01/05 05:20:35;;;;;;;0.90;0.70;;;20.70;30.50;;;;;;4995063;28;20034;-45
2021/01/05 05:23:23;;;;;;;0.80;0.70;;;20.80;30.50;;;;;;4979279;28;20442;-44
2021/01/05 05:26:17;;;;;;;0.70;0.70;;;20.70;30.50;;;;;;4978917;28;20042;-44
2021/01/05 05:28:54;;;;;;;0.50;0.50;;;20.70;30.50;;;;;;4980135;28;20030;-44
2021/01/05 05:31:23;;;;;;;0.73;0.68;;;20.70;31.10;;;;;;4985700;28;20030;-43
2021/01/05 05:33:55;;;;;;;1.05;0.70;;;20.70;30.50;;;;;;4963978;28;20035;-43
2021/01/05 05:36:39;;;;;;;0.55;0.55;;;20.70;30.50;;;;;;4985642;28;20043;-46
2021/01/05 05:39:10;;;;;;;1.20;0.75;;;20.70;30.50;;;;;;4977499;28;20171;-43
2021/01/05 05:41:59;;;;;;;0.63;0.50;;;20.70;30.60;;;;;;4984886;28;20525;-45
2021/01/05 05:44:45;;;;;;;0.90;0.73;;;20.70;30.60;;;;;;4973310;28;20140;-44
2021/01/05 05:47:40;;;;;;;1.42;0.90;;;20.70;30.60;;;;;;4987174;28;20041;-51
2021/01/05 05:50:09;;;;;;;1.10;0.60;;;20.60;30.70;;;;;;4982533;28;20041;-47
2021/01/05 05:52:51;;;;;;;1.33;1.00;;;20.70;30.90;;;;;;4984557;28;20033;-45
2021/01/05 05:55:41;;;;;;;1.08;0.70;;;20.70;30.90;;;;;;4988789;28;20084;-49
2021/01/05 05:58:09;;;;;;;1.35;0.90;;;20.70;30.90;;;;;;4978763;28;20034;-45
2021/01/05 06:00:43;;;;;;;0.77;0.77;;;20.60;30.80;;;;;;4983904;28;20027;-46
2021/01/05 06:03:12;;;;;;;0.87;0.83;;;20.60;30.80;;;;;;4990744;28;20034;-45
2021/01/05 06:05:39;;;;;;;0.77;0.60;;;20.60;30.80;;;;;;4984480;28;20309;-49
2021/01/05 06:08:07;;;;;;;0.82;0.82;;;20.60;30.80;;;;;;4992525;28;20043;-45
2021/01/05 06:10:34;;;;;;;0.80;0.70;;;20.60;30.80;;;;;;4997197;28;20050;-44
2021/01/05 06:13:00;;;;;;;1.27;0.80;;;20.60;30.80;;;;;;4978226;28;20042;-43
2021/01/05 06:15:26;;;;;;;0.80;0.70;;;20.60;30.80;;;;;;4977570;28;20027;-46
2021/01/05 06:17:51;;;;;;;0.95;0.75;;;20.60;30.80;;;;;;4995346;28;20078;-45
2021/01/05 06:20:18;;;;;;;2.90;0.82;;;20.60;30.80;;;;;;4963895;28;20035;-46
2021/01/05 06:22:45;;;;;;;1.27;0.70;;;20.60;30.70;;;;;;4979188;28;20437;-49
2021/01/05 06:25:13;;;;;;;0.90;0.80;;;20.60;30.70;;;;;;4983738;28;20449;-46
2021/01/05 06:27:39;;;;;;;0.90;0.80;;;20.60;30.70;;;;;;4990632;28;20030;-46
2021/01/05 06:30:06;;;;;;;0.88;0.80;;;20.60;30.70;;;;;;4965359;28;20489;-44
2021/01/05 06:32:32;;;;;;;0.73;0.70;;;20.60;30.70;;;;;;4985833;28;20455;-44
2021/01/05 06:34:58;;;;;;;1.25;0.85;;;20.60;30.70;;;;;;4989167;28;20327;-44
2021/01/05 06:37:24;;;;;;;1.17;0.80;;;20.60;30.70;;;;;;4977567;28;20031;-48
2021/01/05 06:39:49;;;;;;;0.75;0.73;;;20.60;30.70;;;;;;4980376;28;20035;-47
2021/01/05 06:42:16;;;;;;;1.27;0.80;;;20.60;30.70;;;;;;4977430;28;20429;-44
2021/01/05 06:44:43;;;;;;;1.00;0.90;;;20.60;30.70;;;;;;4979752;28;20074;-44
2021/01/05 06:47:10;;;;;;;1.13;0.88;;;20.60;30.80;;;;;;4977140;28;20422;-44
2021/01/05 06:49:36;;;;;;;1.00;0.90;;;20.50;30.70;;;;;;4978744;28;20113;-48
2021/01/05 06:52:04;;;;;;;1.00;0.80;;;20.60;30.70;;;;;;4994694;28;20026;-46
2021/01/05 06:54:30;;;;;;;1.42;0.75;;;20.60;30.80;;;;;;4987553;28;20034;-47
2021/01/05 06:56:57;;;;;;;1.20;1.00;;;20.60;30.80;;;;;;4996782;28;20034;-45
2021/01/05 06:59:24;;;;;;;1.05;0.88;;;20.50;30.80;;;;;;4979163;28;20039;-44
2021/01/05 07:01:58;;;;;;;1.13;0.90;;;20.60;30.90;;;;;;4977248;28;20042;-45
2021/01/05 07:04:24;;;;;;;1.02;0.88;;;20.60;30.90;;;;;;4989714;28;20037;-45
2021/01/05 07:06:51;;;;;;;0.95;0.80;;;20.60;30.90;;;;;;4996450;28;20354;-43
2021/01/05 07:09:19;;;;;;;1.90;0.82;;;20.50;30.90;;;;;;4989427;28;20405;-43
2021/01/05 07:11:45;;;;;;;1.00;0.85;;;20.50;30.90;;;;;;4994694;28;20034;-46
2021/01/05 07:14:14;;;;;;;1.10;0.80;;;20.50;30.90;;;;;;4986434;28;20034;-43
2021/01/05 07:16:40;;;;;;;1.10;1.00;;;20.50;30.90;;;;;;4986016;28;20117;-44
2021/01/05 07:19:06;;;;;;;1.23;0.98;;;20.50;31.00;;;;;;4983468;28;20459;-50
2021/01/05 07:21:32;;;;;;;0.70;0.70;;;20.50;30.90;;;;;;4977141;28;20046;-43
2021/01/05 07:23:58;;;;;;;1.60;1.10;;;20.50;31.00;;;;;;4986334;28;20068;-46
2021/01/05 07:26:23;;;;;;;1.40;0.93;;;20.50;31.00;;;;;;4982588;28;20084;-45
2021/01/05 07:28:49;;;;;;;1.83;1.10;;;20.50;31.10;;;;;;4991842;28;20041;-45
2021/01/05 07:31:15;;;;;;;1.10;1.00;;;20.50;31.10;;;;;;4984002;28;20117;-48
2021/01/05 07:33:41;;;;;;;1.50;0.95;;;20.50;31.00;;;;;;4989378;28;20042;-48
2021/01/05 07:36:25;;;;;;;2.65;1.10;;;20.50;31.10;;;;;;4980431;28;20390;-45
2021/01/05 07:38:52;;;;;;;4.53;1.13;;;20.50;31.10;;;;;;4976488;28;20035;-52
2021/01/05 07:41:19;;;;;;;1.58;1.20;;;20.50;31.20;;;;;;4992334;28;20046;-55
2021/01/05 07:43:45;;;;;;;1.20;0.90;;;20.60;31.50;;;;;;4977587;28;20129;-51
2021/01/05 07:46:11;;;;;;;1.38;1.00;;;20.60;31.70;;;;;;4976483;28;20043;-55
2021/01/05 07:48:37;;;;;;;2.40;1.08;;;20.70;31.80;;;;;;4979334;28;20033;-48
2021/01/05 07:51:06;;;;;;;1.23;0.90;;;20.80;31.80;;;;;;4988559;28;20034;-52
2021/01/05 07:53:31;;;;;;;1.17;0.90;;;20.80;31.70;;;;;;4996626;28;20038;-51
2021/01/05 07:55:57;;;;;;;1.80;1.10;;;20.90;31.60;;;;;;5004693;28;20408;-54
2021/01/05 07:58:23;;;;;;;1.05;0.95;;;21.00;31.50;;;;;;4989278;28;20110;-49
2021/01/05 08:00:49;;;;;;;1.30;1.00;;;21.10;31.30;;;;;;4979069;28;20085;-50
2021/01/05 08:03:14;;;;;;;1.10;1.00;;;21.10;31.70;;;;;;4989386;28;20019;-51
2021/01/05 08:05:40;;;;;;;1.52;0.90;;;21.20;31.00;;;;;;4985377;28;20366;-48
2021/01/05 08:08:06;;;;;;;1.48;1.10;;;21.20;30.80;;;;;;5000829;28;20034;-48
2021/01/05 08:10:38;;;;;;;1.75;1.17;;;21.30;30.70;;;;;;4980647;28;20454;-49
2021/01/05 08:13:08;;;;;;;1.08;0.93;;;21.40;30.50;;;;;;4993058;28;20034;-48
2021/01/05 08:15:34;;;;;;;1.17;0.93;;;21.40;30.30;;;;;;4988450;28;20042;-52
2021/01/05 08:18:00;;;;;;;1.20;1.10;;;21.40;30.20;;;;;;4982787;28;20062;-51
2021/01/05 08:20:29;;;;;;;1.63;0.95;;;21.50;30.20;;;;;;4994536;28;20034;-50
2021/01/05 08:22:55;;;;;;;1.42;0.80;;;21.60;30.00;;;;;;4986702;28;20486;-54
2021/01/05 08:25:22;;;;;;;1.58;0.90;;;21.60;30.00;;;;;;4981674;28;20335;-50
2021/01/05 08:27:50;;;;;;;1.20;1.00;;;21.60;30.00;;;;;;4984930;28;20117;-50
2021/01/05 08:30:29;;;;;;;1.40;1.10;;;21.70;30.00;;;;;;4982218;28;20122;-50
2021/01/05 08:33:00;;;;;;;1.17;1.00;;;21.70;29.90;;;;;;5006069;28;20026;-50
2021/01/05 08:35:27;;;;;;;1.30;1.02;;;21.70;29.90;;;;;;4983782;28;20031;-52
2021/01/05 08:37:53;;;;;;;1.42;1.10;;;21.80;29.90;;;;;;4981729;28;20120;-51
2021/01/05 08:40:27;;;;;;;1.00;0.90;;;21.80;29.90;;;;;;4990711;28;20031;-51
2021/01/05 08:42:57;;;;;;;;;;;21.80;29.90;;;;;;4993982;28;20037;-49
2021/01/05 08:45:23;;;;;;;2.00;1.20;;;21.90;29.90;;;;;;4989599;28;19961;-47
2021/01/05 08:47:49;;;;;;;1.83;1.20;;;21.90;29.90;;;;;;4960935;28;20084;-49
2021/01/05 08:50:20;;;;;;;1.63;1.10;;;21.90;30.00;;;;;;4994308;28;20375;-47
2021/01/05 08:52:46;;;;;;;1.55;1.08;;;21.90;30.00;;;;;;4980234;28;20035;-48
2021/01/05 08:55:13;;;;;;;1.17;0.90;;;21.90;30.00;;;;;;4988282;28;20392;-51
2021/01/05 08:57:39;;;;;;;1.38;1.13;;;21.90;30.00;;;;;;4975459;28;20058;-47
2021/01/05 09:00:06;;;;;;;1.05;0.90;;;21.90;30.00;;;;;;4988857;28;20034;-53
2021/01/05 09:02:32;;;;;;;1.10;0.93;;;21.90;30.00;;;;;;4994821;28;20113;-48
2021/01/05 09:04:57;;;;;;;1.08;0.88;;;21.90;30.00;;;;;;4982288;28;20138;-49
2021/01/05 09:07:23;;;;;;;1.60;1.10;;;21.90;29.90;;;;;;4975139;28;20473;-45
2021/01/05 09:09:51;;;;;;;1.23;1.10;;;22.00;29.90;;;;;;4962934;28;20058;-48
2021/01/05 09:12:17;;;;;;;1.48;1.00;;;22.00;29.90;;;;;;4975192;28;20039;-48
2021/01/05 09:14:43;;;;;;;1.05;0.88;;;22.00;29.90;;;;;;4980431;28;20034;-51
2021/01/05 09:17:09;;;;;;;1.63;0.93;;;22.00;29.80;;;;;;4985304;28;20039;-51
2021/01/05 09:19:37;;;;;;;1.50;1.00;;;22.10;29.80;;;;;;4975402;28;20043;-48
2021/01/05 09:22:03;;;;;;;1.33;0.80;;;22.10;29.70;;;;;;4975282;28;20050;-46
2021/01/05 09:24:29;;;;;;;1.23;0.90;;;22.20;29.70;;;;;;4980325;28;20034;-48
2021/01/05 09:26:56;;;;;;;1.40;1.13;;;22.20;29.60;;;;;;4975165;28;20035;-46
2021/01/05 09:29:24;;;;;;;1.10;1.00;;;22.20;29.60;;;;;;4976008;28;20042;-46
2021/01/05 09:31:51;;;;;;;0.93;0.70;;;22.30;29.60;;;;;;4983683;28;20645;-52
2021/01/05 09:34:20;;;;;;;0.85;0.75;;;22.30;29.50;;;;;;4975239;28;20126;-49
2021/01/05 09:36:46;;;;;;;1.85;0.98;;;22.40;30.00;;;;;;4993593;28;20030;-51
2021/01/05 09:39:16;;;;;;;1.15;1.02;;;22.40;29.50;;;;;;4994527;28;20065;-51
2021/01/05 09:41:47;;;;;;;1.63;1.20;;;22.50;29.50;;;;;;4979326;28;20118;-50
2021/01/05 09:44:13;;;;;;;1.55;1.00;;;22.50;29.90;;;;;;4976260;28;20031;-46
2021/01/05 09:46:39;;;;;;;1.58;0.80;;;22.50;29.30;;;;;;4983108;28;20049;-47
2021/01/05 09:49:07;;;;;;;1.23;0.90;;;22.60;29.30;;;;;;4978572;28;20027;-50
2021/01/05 09:51:33;;;;;;;2.35;1.08;;;22.60;29.30;;;;;;4995468;28;20327;-46
2021/01/05 09:53:59;;;;;;;1.00;0.90;;;22.60;29.20;;;;;;4997731;28;20453;-50
2021/01/05 09:56:25;;;;;;;2.60;0.90;;;22.70;29.30;;;;;;4991211;28;20042;-48
2021/01/05 09:58:51;;;;;;;1.00;0.90;;;22.70;29.20;;;;;;4987928;28;20211;-48
2021/01/05 10:01:31;;;;;;;1.20;1.00;;;22.70;29.20;;;;;;4996816;28;20018;-54
2021/01/05 10:03:56;;;;;;;1.85;1.00;;;22.70;29.10;;;;;;4997739;28;20464;-51
2021/01/05 10:06:30;;;;;;;1.27;0.80;;;22.70;29.10;;;;;;4992734;28;20035;-46
2021/01/05 10:08:57;;;;;;;1.77;0.73;;;22.80;29.10;;;;;;4978167;28;20042;-46
2021/01/05 10:11:29;;;;;;;1.77;0.80;;;22.80;29.00;;;;;;4977128;28;20038;-46
2021/01/05 10:13:54;;;;;;;1.38;0.85;;;22.80;29.00;;;;;;4994331;28;20378;-50
2021/01/05 10:16:20;;;;;;;0.95;0.80;;;22.80;28.90;;;;;;4991178;28;20073;-50
2021/01/05 10:18:46;;;;;;;0.93;0.80;;;22.80;28.90;;;;;;4992176;28;20100;-50
2021/01/05 10:21:11;;;;;;;1.65;0.65;;;22.80;28.80;;;;;;4997363;28;20038;-49
2021/01/05 10:23:37;;;;;;;0.88;0.63;;;22.90;28.80;;;;;;4992491;28;20065;-51
2021/01/05 10:26:03;;;;;;;0.70;0.70;;;22.80;28.70;;;;;;4977816;28;20041;-52
2021/01/05 10:28:29;;;;;;;0.90;0.60;;;22.90;28.70;;;;;;4978689;28;20355;-53
2021/01/05 10:30:55;;;;;;;0.50;0.50;;;22.90;28.60;;;;;;4985186;28;20369;-50
2021/01/05 10:33:20;;;;;;;1.00;0.70;;;22.90;28.60;;;;;;4976210;28;20446;-47
2021/01/05 10:35:47;;;;;;;1.38;0.80;;;22.90;28.60;;;;;;4978230;28;20045;-46
2021/01/05 10:38:13;;;;;;;0.88;0.70;;;22.90;28.50;;;;;;4977820;28;20065;-51
2021/01/05 10:40:39;;;;;;;1.35;0.73;;;22.90;28.50;;;;;;4996103;28;20069;-50
2021/01/05 10:43:05;;;;;;;1.67;0.90;;;22.90;28.50;;;;;;4994652;28;20533;-47
2021/01/05 10:45:31;;;;;;;1.15;0.95;;;22.90;28.50;;;;;;4985511;28;20035;-46
2021/01/05 10:47:58;;;;;;;0.85;0.65;;;22.90;28.50;;;;;;4969261;28;20421;-49
2021/01/05 10:50:25;;;;;;;0.82;0.60;;;22.90;28.50;;;;;;4993493;28;20037;-44
2021/01/05 10:52:52;;;;;;;1.67;0.90;;;22.90;28.40;;;;;;4977308;28;20027;-46
2021/01/05 10:55:21;;;;;;;1.17;0.80;;;22.90;28.40;;;;;;4987878;28;20105;-46
2021/01/05 10:57:48;;;;;;;0.88;0.70;;;22.90;28.40;;;;;;4982832;28;20035;-45
2021/01/05 11:00:19;;;;;;;1.50;1.02;;;22.90;28.50;;;;;;4992392;28;20026;-48
2021/01/05 11:02:46;;;;;;;0.80;0.68;;;22.90;28.50;;;;;;4996170;28;20447;-45
2021/01/05 11:05:16;;;;;;;0.80;0.70;;;22.90;28.50;;;;;;4994801;28;20129;-48
2021/01/05 11:07:48;;;;;;;1.02;0.70;;;22.90;28.50;;;;;;4991237;28;20516;-49
2021/01/05 11:10:14;;;;;;;0.60;0.60;;;22.90;28.60;;;;;;4994693;28;20061;-47
2021/01/05 11:12:40;;;;;;;1.00;0.80;;;22.90;28.70;;;;;;4982242;28;20057;-47
2021/01/05 11:15:06;;;;;;;0.50;0.50;;;22.80;28.50;;;;;;4994845;28;20026;-54
2021/01/05 11:17:32;;;;;;;1.15;0.82;;;22.90;28.60;;;;;;4991912;28;20117;-49
2021/01/05 11:19:58;;;;;;;0.90;0.70;;;22.90;28.60;;;;;;4994212;28;20097;-46
2021/01/05 11:22:25;;;;;;;1.00;0.88;;;22.80;28.60;;;;;;4986198;28;20023;-46
2021/01/05 11:24:51;;;;;;;0.98;0.70;;;22.80;28.70;;;;;;4992151;28;20038;-46
2021/01/05 11:27:18;;;;;;;2.55;0.80;;;22.80;28.70;;;;;;4975810;28;20038;-50
2021/01/05 11:29:45;;;;;;;1.10;0.82;;;22.80;28.70;;;;;;4977865;28;20022;-51
2021/01/05 11:32:16;;;;;;;1.10;0.75;;;22.80;28.70;;;;;;4984170;28;20030;-52
2021/01/05 11:34:43;;;;;;;0.70;0.68;;;22.80;28.60;;;;;;4992173;28;20026;-47
2021/01/05 11:37:19;;;;;;;1.30;1.02;;;22.80;28.60;;;;;;4988131;28;20031;-53
2021/01/05 11:39:46;;;;;;;0.95;0.80;;;22.80;28.30;;;;;;4990244;28;20349;-55
2021/01/05 11:42:14;;;;;;;1.63;0.93;;;22.80;28.30;;;;;;4992701;28;20045;-45
2021/01/05 11:44:41;;;;;;;3.78;0.98;;;22.80;28.40;;;;;;4994563;28;20034;-46
2021/01/05 11:47:07;;;;;;;2.00;1.10;;;22.70;28.40;;;;;;4987937;28;20468;-47
2021/01/05 11:49:33;;;;;;;1.02;0.88;;;22.80;28.40;;;;;;4994983;28;20031;-51
2021/01/05 11:51:59;;;;;;;1.35;0.80;;;22.80;28.40;;;;;;4993750;28;20344;-46
2021/01/05 11:54:26;;;;;;;1.02;0.90;;;22.70;28.30;;;;;;4993870;28;20330;-52
2021/01/05 11:56:59;;;;;;;0.85;0.82;;;22.70;28.30;;;;;;4994071;28;20033;-49
2021/01/05 11:59:26;;;;;;;1.60;1.00;;;22.70;28.30;;;;;;4993900;28;20373;-50
2021/01/05 12:01:52;;;;;;;1.15;1.05;;;22.70;28.30;;;;;;4994035;28;20092;-46
2021/01/05 12:04:18;;;;;;;1.00;0.80;;;22.70;28.30;;;;;;4993666;28;20022;-47
2021/01/05 12:06:52;;;;;;;1.42;1.10;;;22.70;28.30;;;;;;4994420;28;20061;-49
2021/01/05 12:09:19;;;;;;;1.52;1.23;;;22.70;28.30;;;;;;4989861;28;20126;-48
2021/01/05 12:11:45;;;;;;;1.30;1.05;;;22.70;28.30;;;;;;4989778;28;20065;-60
2021/01/05 12:14:13;;;;;;;2.30;1.80;;;22.70;28.30;;;;;;4990506;28;20065;-50
2021/01/05 12:16:41;;;;;;;1.80;1.40;;;22.60;27.60;;;;;;4988816;28;20395;-47
2021/01/05 12:19:14;;;;;;;2.72;1.20;;;22.50;28.10;;;;;;4988264;28;20034;-47
2021/01/05 12:21:41;;;;;;;1.42;1.02;;;22.50;28.30;;;;;;4993394;28;20109;-51
2021/01/05 12:24:11;;;;;;;2.35;1.23;;;22.50;28.50;;;;;;4988648;28;20169;-52
2021/01/05 12:26:39;;;;;;;2.17;1.42;;;22.50;28.60;;;;;;4990450;28;20457;-46
2021/01/05 12:29:11;;;;;;;1.60;1.15;;;22.50;28.70;;;;;;4992008;28;20357;-47
2021/01/05 12:31:46;;;;;;;2.55;1.45;;;22.50;28.70;;;;;;4990966;28;20513;-49
2021/01/05 12:34:11;;;;;;;;;;;22.50;28.70;;;;;;4973212;28;20362;-50
2021/01/05 12:36:39;;;;;;;5.25;1.30;;;22.50;28.80;;;;;;4981141;28;19918;-52
2021/01/05 12:39:08;;;;;;;1.40;1.20;;;22.50;29.10;;;;;;4989903;28;20045;-54
2021/01/05 12:41:36;;;;;;;1.70;1.10;;;22.50;29.30;;;;;;4993305;28;20022;-51
2021/01/05 12:44:05;;;;;;;1.80;1.27;;;22.50;29.50;;;;;;4990839;28;20361;-51
2021/01/05 12:46:36;;;;;;;1.75;1.40;;;22.50;29.70;;;;;;4990531;28;20046;-50
2021/01/05 12:49:03;;;;;;;1.67;0.80;;;22.50;29.70;;;;;;4994908;28;20109;-55
2021/01/05 12:51:33;;;;;;;1.67;1.20;;;22.60;29.80;;;;;;4996367;28;20022;-49
2021/01/05 12:54:00;;;;;;;2.58;1.17;;;22.60;30.00;;;;;;4992537;28;20084;-48
2021/01/05 12:56:28;;;;;;;1.45;1.35;;;22.60;30.00;;;;;;4990856;28;20454;-49
2021/01/05 12:58:55;;;;;;;2.05;1.63;;;22.60;30.00;;;;;;4990182;28;20029;-51
2021/01/05 13:01:21;;;;;;;1.95;1.83;;;22.60;30.10;;;;;;4990797;28;20030;-55
2021/01/05 13:03:52;;;;;;;2.85;1.90;;;22.60;30.20;;;;;;4991236;28;20030;-50
2021/01/05 13:06:19;;;;;;;3.70;2.30;;;22.60;30.20;;;;;;4991312;28;20046;-52
2021/01/05 13:08:46;;;;;;;3.35;2.15;;;22.60;30.30;;;;;;4990938;28;20441;-48
2021/01/05 13:11:19;;;;;;;5.13;2.45;;;22.70;30.20;;;;;;4988318;28;20461;-47
2021/01/05 13:13:45;;;;;;;3.55;2.30;;;22.60;30.10;;;;;;4991389;28;20027;-50